LOT7JF EPWA-EYVI
Flight info
| Callsign | LOT7JF |
|---|---|
| Flight time | N/A |
| Altitude | 33000 |
| Route | BAMSO Z182 ASLUX Z460 XESNA M857 BULEP DCT OFEDE DCT LIZUP DCT DIMTA |
| Aircraft | B738/M-SDE2E3FGHIRWXY/LB1 |
Departure
| Time | 2026-04-30 05:07 |
|---|---|
| Airport | Warsaw Chopin Airport (EPWA) |
Arrival
| Time | N/A |
|---|---|
| Airport | Vilnius International Airport (EYVI) |
| Time | Latitude | Longitude | Altitude | Speed | Heading |
|---|---|---|---|---|---|
| 2026-04-30 04:50 | 52.17094 | 20.97061 | 338 ft | 0 kts | 75° |
| 2026-04-30 04:58 | 52.17091 | 20.97045 | 333 ft | 4 kts | 75° |
| 2026-04-30 04:58 | 52.17085 | 20.97004 | 332 ft | 4 kts | 75° |
| 2026-04-30 04:58 | 52.17075 | 20.96969 | 332 ft | 2 kts | 62° |
| 2026-04-30 04:59 | 52.17067 | 20.96937 | 333 ft | 4 kts | 107° |
| 2026-04-30 04:59 | 52.17082 | 20.96907 | 332 ft | 4 kts | 149° |
| 2026-04-30 04:59 | 52.17101 | 20.96890 | 336 ft | 4 kts | 152° |
| 2026-04-30 04:59 | 52.17115 | 20.96878 | 332 ft | 0 kts | 152° |
| 2026-04-30 05:03 | 52.17114 | 20.96879 | 338 ft | 1 kts | 152° |
| 2026-04-30 05:03 | 52.17093 | 20.96897 | 336 ft | 7 kts | 152° |
| 2026-04-30 05:03 | 52.17029 | 20.96953 | 336 ft | 13 kts | 152° |
| 2026-04-30 05:04 | 52.16945 | 20.97026 | 334 ft | 13 kts | 152° |
| 2026-04-30 05:04 | 52.16890 | 20.97074 | 334 ft | 13 kts | 152° |
| 2026-04-30 05:04 | 52.16823 | 20.97132 | 336 ft | 13 kts | 152° |
| 2026-04-30 05:04 | 52.16755 | 20.97186 | 336 ft | 10 kts | 172° |
| 2026-04-30 05:05 | 52.16707 | 20.97118 | 336 ft | 10 kts | 241° |
| 2026-04-30 05:05 | 52.16663 | 20.97044 | 337 ft | 10 kts | 187° |
| 2026-04-30 05:05 | 52.16604 | 20.97085 | 335 ft | 9 kts | 153° |
| 2026-04-30 05:06 | 52.16491 | 20.97182 | 335 ft | 9 kts | 152° |
| 2026-04-30 05:06 | 52.16461 | 20.97209 | 336 ft | 4 kts | 152° |
| 2026-04-30 05:06 | 52.16433 | 20.97217 | 335 ft | 4 kts | 210° |
| 2026-04-30 05:06 | 52.16440 | 20.97164 | 336 ft | 14 kts | 299° |
| 2026-04-30 05:07 | 52.16605 | 20.96605 | 336 ft | 95 kts | 295° |
| 2026-04-30 05:07 | 52.16977 | 20.95288 | 467 ft | 147 kts | 295° |
| 2026-04-30 05:07 | 52.17386 | 20.93775 | 1239 ft | 149 kts | 296° |
| 2026-04-30 05:07 | 52.17816 | 20.92217 | 1981 ft | 152 kts | 297° |
| 2026-04-30 05:08 | 52.18395 | 20.90683 | 2423 ft | 174 kts | 323° |
| 2026-04-30 05:08 | 52.19501 | 20.89847 | 2874 ft | 191 kts | 336° |
| 2026-04-30 05:08 | 52.20761 | 20.88843 | 3041 ft | 212 kts | 333° |
| 2026-04-30 05:08 | 52.22083 | 20.87593 | 3554 ft | 226 kts | 321° |
| 2026-04-30 05:09 | 52.23189 | 20.85726 | 4204 ft | 238 kts | 313° |
| 2026-04-30 05:09 | 52.24336 | 20.83707 | 5089 ft | 245 kts | 314° |
| 2026-04-30 05:09 | 52.25507 | 20.81681 | 6132 ft | 246 kts | 314° |
| 2026-04-30 05:09 | 52.26844 | 20.79925 | 6995 ft | 253 kts | 338° |
| 2026-04-30 05:10 | 52.28568 | 20.79505 | 7827 ft | 258 kts | 7° |
| 2026-04-30 05:10 | 52.30258 | 20.80500 | 8834 ft | 260 kts | 31° |
| 2026-04-30 05:10 | 52.31711 | 20.82278 | 9883 ft | 262 kts | 37° |